Time;durP1;ratioP1;P1;durP2;ratioP2;P2;SDS_P1;SDS_P2;PMS_P1;PMS_P2;Temp;Humidity;BMP_temperature;BMP_pressure;BME280_temperature;BME280_humidity;BME280_pressure;Samples;Min_cycle;Max_cycle;Signal;HPM_P1;HPM_P2
2022/03/16 00:01:02;;;;;;;44.20;15.70;;;2.60;92.90;;;;;;6010052;23;20620;-90
2022/03/16 00:03:27;;;;;;;40.27;13.80;;;2.50;93.00;;;;;;6010428;23;20559;-89
2022/03/16 00:05:54;;;;;;;64.60;16.10;;;2.40;93.20;;;;;;6009998;23;20308;-89
2022/03/16 00:08:19;;;;;;;86.03;17.40;;;2.30;93.50;;;;;;6010620;23;20183;-89
2022/03/16 00:10:45;;;;;;;35.80;20.00;;;2.40;93.60;;;;;;6011686;23;20608;-90
2022/03/16 00:13:10;;;;;;;58.90;19.10;;;2.60;93.80;;;;;;6010140;23;20247;-90
2022/03/16 00:15:36;;;;;;;29.43;16.83;;;2.70;93.80;;;;;;6009978;23;20175;-90
2022/03/16 00:18:01;;;;;;;47.03;15.43;;;2.70;93.80;;;;;;6010282;23;20191;-88
2022/03/16 00:20:27;;;;;;;39.43;15.47;;;2.70;93.70;;;;;;6009968;23;20167;-88
2022/03/16 00:22:52;;;;;;;21.67;14.83;;;2.60;93.70;;;;;;6009904;23;20178;-89
2022/03/16 00:25:18;;;;;;;28.17;14.33;;;2.50;93.70;;;;;;6009831;23;20212;-89
2022/03/16 00:27:43;;;;;;;24.43;14.77;;;2.30;93.60;;;;;;6011468;23;20149;-88
2022/03/16 00:30:10;;;;;;;21.70;14.23;;;2.30;93.60;;;;;;6009959;23;20614;-88
2022/03/16 00:32:35;;;;;;;19.13;13.77;;;2.20;93.60;;;;;;6009928;23;20616;-89
2022/03/16 00:35:01;;;;;;;19.17;15.30;;;2.10;93.60;;;;;;6009936;23;20166;-88
2022/03/16 00:37:28;;;;;;;25.23;15.70;;;2.10;93.60;;;;;;6011737;23;20163;-89
2022/03/16 00:39:53;;;;;;;24.47;15.47;;;2.00;93.60;;;;;;6009946;23;20234;-88
2022/03/16 00:42:19;;;;;;;28.20;15.47;;;2.00;93.70;;;;;;6009962;23;20191;-88
2022/03/16 00:44:44;;;;;;;23.87;16.73;;;2.10;93.70;;;;;;6010153;23;20166;-89
2022/03/16 00:47:10;;;;;;;31.60;16.67;;;2.20;93.80;;;;;;6010011;23;20238;-89
2022/03/16 00:49:36;;;;;;;26.60;17.57;;;2.20;93.80;;;;;;6009971;23;20213;-89
2022/03/16 00:52:01;;;;;;;41.97;18.43;;;2.20;93.80;;;;;;6009925;23;20595;-89
2022/03/16 00:54:27;;;;;;;28.47;17.73;;;2.30;93.90;;;;;;6009979;23;20663;-90
2022/03/16 00:56:53;;;;;;;30.13;18.37;;;2.30;93.90;;;;;;6011566;23;20164;-89
2022/03/16 00:59:19;;;;;;;26.37;16.33;;;2.40;93.90;;;;;;6014614;23;20245;-89
2022/03/16 01:01:44;;;;;;;50.43;18.20;;;2.40;93.90;;;;;;6014705;23;20610;-90
2022/03/16 01:04:10;;;;;;;51.87;18.57;;;2.40;94.00;;;;;;6014802;23;20170;-90
2022/03/16 01:06:35;;;;;;;52.40;19.47;;;2.40;94.00;;;;;;6014472;23;20186;-90
2022/03/16 01:09:01;;;;;;;50.90;20.33;;;2.50;94.10;;;;;;6014707;23;20179;-90
2022/03/16 01:11:26;;;;;;;50.57;19.90;;;2.50;94.10;;;;;;6014941;23;20152;-89
2022/03/16 01:13:52;;;;;;;117.07;21.53;;;2.60;94.10;;;;;;6016201;23;20169;-90
2022/03/16 01:16:17;;;;;;;31.77;19.67;;;2.70;94.20;;;;;;6017137;23;20518;-90
2022/03/16 01:18:43;;;;;;;64.43;23.53;;;2.60;94.20;;;;;;6016991;23;20675;-89
2022/03/16 01:21:09;;;;;;;42.90;23.87;;;2.60;94.30;;;;;;6017389;23;20163;-89
2022/03/16 01:23:36;;;;;;;39.53;23.00;;;2.70;94.30;;;;;;6017659;23;20166;-89
2022/03/16 01:26:03;;;;;;;25.37;22.63;;;2.70;94.40;;;;;;6017033;23;20269;-89
2022/03/16 01:28:28;;;;;;;49.07;21.73;;;2.70;94.40;;;;;;6017137;23;20246;-89
2022/03/16 01:30:54;;;;;;;36.43;22.27;;;2.80;94.40;;;;;;6017131;23;20156;-89
2022/03/16 01:33:19;;;;;;;58.93;21.77;;;2.90;94.40;;;;;;6017377;23;20163;-89
2022/03/16 01:35:45;;;;;;;56.00;22.13;;;2.90;94.40;;;;;;6017010;23;20167;-89
2022/03/16 01:38:10;;;;;;;45.33;20.47;;;2.80;94.30;;;;;;6017161;23;20617;-89
2022/03/16 01:40:36;;;;;;;50.70;18.53;;;2.80;94.40;;;;;;6016749;23;20237;-90
2022/03/16 01:43:02;;;;;;;48.80;19.80;;;2.80;94.40;;;;;;6018280;23;20239;-89
2022/03/16 01:45:27;;;;;;;53.37;20.00;;;2.80;94.40;;;;;;6017128;23;20269;-90
2022/03/16 01:47:53;;;;;;;51.67;19.60;;;2.80;94.40;;;;;;6017340;23;20469;-89
2022/03/16 01:50:18;;;;;;;56.73;21.37;;;2.70;94.40;;;;;;6016828;23;20156;-90
2022/03/16 01:52:44;;;;;;;35.60;20.83;;;2.80;94.40;;;;;;6016400;23;20179;-89
2022/03/16 01:55:10;;;;;;;29.97;20.80;;;2.70;94.40;;;;;;6017940;23;20648;-89
2022/03/16 01:57:39;;;;;;;55.70;21.27;;;2.80;94.40;;;;;;6016905;23;20171;-90
2022/03/16 02:00:06;;;;;;;23.27;20.47;;;2.80;94.40;;;;;;6017195;23;20183;-89
2022/03/16 02:02:33;;;;;;;26.23;20.67;;;2.90;94.40;;;;;;6016515;23;20160;-89
2022/03/16 02:04:59;;;;;;;23.57;19.37;;;2.90;94.40;;;;;;6016550;23;20195;-90
2022/03/16 02:07:24;;;;;;;22.40;20.00;;;2.90;94.50;;;;;;6016597;23;20608;-89
2022/03/16 02:09:52;;;;;;;21.70;19.10;;;3.00;94.50;;;;;;6016437;23;20175;-89
2022/03/16 02:12:17;;;;;;;28.37;20.10;;;3.00;94.50;;;;;;6016479;23;20156;-89
2022/03/16 02:14:43;;;;;;;28.40;20.20;;;3.10;94.50;;;;;;6016770;23;20169;-89
2022/03/16 02:17:08;;;;;;;26.07;19.13;;;3.00;94.40;;;;;;6016730;23;20164;-89
2022/03/16 02:19:34;;;;;;;27.33;20.60;;;3.00;94.40;;;;;;6016444;23;20216;-89
2022/03/16 02:22:02;;;;;;;25.07;20.07;;;2.90;94.40;;;;;;6016969;23;20162;-89
2022/03/16 02:24:30;;;;;;;29.27;20.47;;;2.90;94.40;;;;;;6016170;23;20156;-90
2022/03/16 02:26:56;;;;;;;25.10;20.00;;;2.90;94.40;;;;;;6017283;23;20247;-89
2022/03/16 02:29:22;;;;;;;22.27;19.93;;;2.90;94.40;;;;;;6016409;23;20176;-89
2022/03/16 02:31:49;;;;;;;23.70;20.47;;;2.90;94.40;;;;;;6016495;23;20166;-89
2022/03/16 02:34:14;;;;;;;23.77;20.70;;;2.80;94.40;;;;;;6016609;23;20627;-90
2022/03/16 02:36:40;;;;;;;21.90;19.30;;;2.80;94.30;;;;;;6041812;23;20153;-89
2022/03/16 02:39:06;;;;;;;23.67;20.63;;;2.80;94.30;;;;;;6016321;23;20199;-89
2022/03/16 02:41:32;;;;;;;28.13;20.53;;;2.80;94.40;;;;;;6016625;23;20502;-89
2022/03/16 02:43:58;;;;;;;23.17;20.53;;;2.80;94.40;;;;;;6016466;23;20191;-89
2022/03/16 02:46:23;;;;;;;22.83;20.30;;;2.70;94.40;;;;;;6016517;23;20220;-89
2022/03/16 02:48:49;;;;;;;22.67;19.67;;;2.60;94.30;;;;;;6016741;23;20185;-89
2022/03/16 02:51:15;;;;;;;22.43;19.97;;;2.60;94.30;;;;;;6041877;23;20159;-89
2022/03/16 02:53:40;;;;;;;23.33;20.63;;;2.50;94.30;;;;;;6041820;23;20184;-89
2022/03/16 02:56:07;;;;;;;25.23;20.43;;;2.40;94.30;;;;;;6016487;23;20166;-89
2022/03/16 02:58:33;;;;;;;23.37;20.33;;;2.40;94.30;;;;;;6016372;23;20223;-89
2022/03/16 03:00:58;;;;;;;24.50;20.60;;;2.30;94.30;;;;;;6016681;23;20163;-89
2022/03/16 03:03:24;;;;;;;26.47;20.70;;;2.30;94.30;;;;;;6016258;23;20169;-89
2022/03/16 03:05:52;;;;;;;29.03;20.20;;;2.30;94.30;;;;;;6042145;23;20220;-89
2022/03/16 03:08:18;;;;;;;27.27;21.63;;;2.30;94.40;;;;;;6016395;23;20179;-89
2022/03/16 03:10:43;;;;;;;29.87;21.30;;;2.30;94.40;;;;;;6017318;23;20593;-90
2022/03/16 03:13:09;;;;;;;32.40;21.07;;;2.30;94.40;;;;;;6016025;23;20239;-89
2022/03/16 03:15:34;;;;;;;33.50;21.77;;;2.30;94.40;;;;;;6016070;23;20168;-89
2022/03/16 03:18:00;;;;;;;29.33;21.03;;;2.30;94.40;;;;;;6016033;23;20630;-89
2022/03/16 03:20:26;;;;;;;25.43;20.20;;;2.30;94.40;;;;;;6015962;23;20607;-89
2022/03/16 03:22:51;;;;;;;27.67;21.73;;;2.20;94.30;;;;;;6015969;23;20271;-90
2022/03/16 03:25:17;;;;;;;29.50;19.10;;;2.10;94.30;;;;;;6016012;23;20194;-89
2022/03/16 03:27:42;;;;;;;36.10;19.43;;;2.10;94.40;;;;;;6016193;23;20498;-89
2022/03/16 03:30:09;;;;;;;52.73;19.60;;;2.10;94.40;;;;;;6016006;23;20187;-89
2022/03/16 03:32:36;;;;;;;180.50;22.23;;;2.00;94.30;;;;;;6041060;23;20149;-89
2022/03/16 03:35:01;;;;;;;161.30;22.50;;;1.90;94.30;;;;;;6016065;23;20189;-90
2022/03/16 03:37:30;;;;;;;181.43;23.00;;;1.80;94.30;;;;;;6015953;23;20669;-90
2022/03/16 03:39:56;;;;;;;206.97;22.13;;;1.90;94.40;;;;;;6040961;23;20174;-92
2022/03/16 03:42:22;;;;;;;254.23;23.53;;;1.90;94.40;;;;;;6016527;23;20170;-90
2022/03/16 03:44:48;;;;;;;247.20;24.53;;;1.90;94.40;;;;;;6015712;23;20202;-90
2022/03/16 03:47:14;;;;;;;220.87;24.43;;;1.80;94.40;;;;;;6016003;23;20167;-90
2022/03/16 03:49:41;;;;;;;383.30;28.30;;;1.90;94.40;;;;;;6015516;23;20186;-89
2022/03/16 03:52:08;;;;;;;267.27;23.27;;;1.80;94.40;;;;;;6016649;23;20167;-89
2022/03/16 03:54:33;;;;;;;289.47;22.23;;;1.80;94.40;;;;;;6015704;23;20193;-90
2022/03/16 03:56:59;;;;;;;228.23;23.67;;;1.70;94.40;;;;;;6016332;23;20167;-89
2022/03/16 03:59:24;;;;;;;231.27;21.70;;;1.60;94.40;;;;;;6015987;23;20280;-90
2022/03/16 04:01:50;;;;;;;59.70;19.97;;;1.60;94.40;;;;;;6016083;23;20168;-90
2022/03/16 04:04:16;;;;;;;25.70;18.90;;;1.60;94.40;;;;;;6041671;23;20211;-90
2022/03/16 04:06:42;;;;;;;22.80;19.03;;;1.70;94.40;;;;;;6015870;23;20516;-90
2022/03/16 04:09:07;;;;;;;31.37;19.43;;;1.70;94.40;;;;;;6015329;23;20176;-90
2022/03/16 04:11:34;;;;;;;43.10;19.17;;;1.80;94.50;;;;;;6040594;23;20154;-90
2022/03/16 04:13:59;;;;;;;81.77;20.17;;;1.80;94.50;;;;;;6015485;23;20160;-90
2022/03/16 04:16:25;;;;;;;55.13;20.60;;;1.80;94.50;;;;;;6015865;23;20162;-90
2022/03/16 04:18:51;;;;;;;36.63;21.80;;;1.70;94.40;;;;;;6015572;23;20181;-90
2022/03/16 04:21:16;;;;;;;85.17;21.23;;;1.80;94.50;;;;;;6015198;23;20172;-90
2022/03/16 04:23:42;;;;;;;49.57;19.03;;;1.80;94.50;;;;;;6015536;23;20163;-90
2022/03/16 04:26:08;;;;;;;51.47;22.03;;;1.60;94.40;;;;;;6015338;23;20196;-90
2022/03/16 04:28:34;;;;;;;50.10;23.80;;;1.60;94.40;;;;;;6015500;23;20179;-90
2022/03/16 04:31:00;;;;;;;62.77;26.87;;;1.70;94.40;;;;;;6015440;23;20633;-90
2022/03/16 04:33:27;;;;;;;74.90;30.33;;;1.80;94.50;;;;;;6015232;23;20670;-90
2022/03/16 04:35:52;;;;;;;55.13;29.57;;;2.00;94.60;;;;;;6062912;23;20511;-90
2022/03/16 04:38:19;;;;;;;70.67;33.37;;;2.20;94.60;;;;;;6016002;23;20182;-91
2022/03/16 04:40:45;;;;;;;81.90;33.63;;;2.30;94.60;;;;;;6015593;23;20163;-90
2022/03/16 04:43:10;;;;;;;81.23;34.27;;;2.30;94.60;;;;;;6015196;23;20207;-90
2022/03/16 04:45:38;;;;;;;92.70;33.63;;;2.30;94.70;;;;;;6040257;23;20646;-90
2022/03/16 04:48:08;;;;;;;85.03;33.90;;;2.30;94.60;;;;;;6016262;23;20183;-90
2022/03/16 04:50:35;;;;;;;99.37;35.67;;;2.30;94.70;;;;;;6017145;23;20159;-90
2022/03/16 04:53:00;;;;;;;84.63;36.50;;;2.30;94.70;;;;;;6017153;23;20159;-90
2022/03/16 04:55:26;;;;;;;96.27;35.93;;;2.30;94.70;;;;;;6017128;23;20196;-90
2022/03/16 04:57:52;;;;;;;95.63;35.17;;;2.30;94.70;;;;;;6042287;23;20484;-89
2022/03/16 05:00:17;;;;;;;97.07;36.33;;;2.30;94.70;;;;;;6030831;23;20200;-92
2022/03/16 05:02:43;;;;;;;96.10;36.40;;;2.40;94.70;;;;;;6040619;23;20156;-93
2022/03/16 05:05:10;;;;;;;102.43;36.87;;;2.40;94.80;;;;;;6040341;23;20186;-92
2022/03/16 05:07:39;;;;;;;91.73;35.73;;;2.60;94.80;;;;;;6040885;23;20234;-92
2022/03/16 05:10:07;;;;;;;94.03;37.27;;;2.50;94.80;;;;;;6040943;23;20183;-92
2022/03/16 05:12:40;;;;;;;73.80;33.27;;;2.50;94.80;;;;;;6040802;23;20241;-92
2022/03/16 05:15:08;;;;;;;68.23;32.90;;;2.50;94.80;;;;;;6041280;23;20512;-92
2022/03/16 05:17:34;;;;;;;76.43;31.40;;;2.40;94.70;;;;;;6040181;23;20165;-91
2022/03/16 05:20:00;;;;;;;79.67;29.57;;;2.40;94.70;;;;;;6040234;23;20361;-91
2022/03/16 05:22:25;;;;;;;79.03;30.30;;;2.30;94.70;;;;;;6040728;23;20197;-92
2022/03/16 05:24:51;;;;;;;75.97;29.93;;;2.20;94.70;;;;;;6040492;23;20612;-92
2022/03/16 05:27:19;;;;;;;71.57;30.57;;;2.20;94.70;;;;;;6041438;23;20159;-93
2022/03/16 05:29:45;;;;;;;56.00;29.37;;;2.20;94.70;;;;;;6040229;23;20698;-92
2022/03/16 05:32:10;;;;;;;59.73;28.40;;;2.30;94.80;;;;;;6040446;23;20162;-91
2022/03/16 05:34:36;;;;;;;53.13;27.47;;;2.20;94.70;;;;;;6040300;23;20233;-91
2022/03/16 05:37:02;;;;;;;54.97;26.87;;;2.20;94.70;;;;;;6042200;23;20182;-92
2022/03/16 05:39:27;;;;;;;59.73;29.93;;;2.10;94.70;;;;;;6040432;23;20530;-91
2022/03/16 05:41:53;;;;;;;79.73;34.10;;;2.10;94.70;;;;;;6039958;23;20561;-92
2022/03/16 05:44:18;;;;;;;77.60;33.97;;;2.10;94.70;;;;;;6040343;23;20167;-92
2022/03/16 05:46:44;;;;;;;85.97;35.43;;;2.00;94.70;;;;;;6040286;23;20270;-91
2022/03/16 05:49:10;;;;;;;116.77;46.80;;;2.10;94.70;;;;;;6039858;23;20261;-93
2022/03/16 05:51:35;;;;;;;116.80;46.07;;;2.10;94.70;;;;;;6040419;23;20160;-92
2022/03/16 05:54:01;;;;;;;113.20;46.40;;;2.10;94.70;;;;;;6041376;23;20158;-92
2022/03/16 05:56:26;;;;;;;104.70;43.10;;;2.10;94.70;;;;;;6040413;23;20174;-92
2022/03/16 05:58:52;;;;;;;101.90;42.63;;;2.10;94.70;;;;;;6041322;23;20163;-92
2022/03/16 06:01:17;;;;;;;80.80;38.63;;;2.00;94.70;;;;;;6044723;23;20159;-92
2022/03/16 06:03:43;;;;;;;66.40;28.20;;;2.10;94.70;;;;;;6044739;23;20172;-91
2022/03/16 06:06:09;;;;;;;51.93;25.97;;;2.10;94.70;;;;;;6044612;23;20206;-91
2022/03/16 06:08:34;;;;;;;134.07;29.00;;;2.10;94.70;;;;;;6044481;23;20162;-91
2022/03/16 06:11:00;;;;;;;187.67;27.40;;;2.10;94.70;;;;;;6044494;23;20179;-91
2022/03/16 06:13:25;;;;;;;267.23;29.60;;;2.20;94.70;;;;;;6044341;23;20176;-91
2022/03/16 06:15:51;;;;;;;287.33;30.83;;;2.30;94.80;;;;;;6044469;23;20162;-92
2022/03/16 06:18:16;;;;;;;233.40;29.50;;;2.30;94.80;;;;;;6044312;23;20168;-90
2022/03/16 06:20:42;;;;;;;70.03;26.93;;;2.30;94.80;;;;;;6044233;23;20182;-91
2022/03/16 06:23:22;;;;;;;70.60;28.43;;;2.40;94.80;;;;;;6044981;23;20197;-91
2022/03/16 06:25:48;;;;;;;63.13;29.80;;;2.50;94.80;;;;;;6044010;23;20278;-91
2022/03/16 06:28:13;;;;;;;73.37;32.40;;;2.50;94.80;;;;;;6044262;23;20159;-91
2022/03/16 06:30:39;;;;;;;63.83;32.80;;;2.50;94.80;;;;;;6069521;23;20240;-91
2022/03/16 06:33:04;;;;;;;70.60;34.77;;;2.60;94.80;;;;;;6045104;23;20181;-89
2022/03/16 06:35:30;;;;;;;87.80;39.07;;;2.80;94.90;;;;;;6045507;23;20227;-91
2022/03/16 06:37:56;;;;;;;80.93;36.80;;;2.80;94.90;;;;;;6069635;23;20199;-91
2022/03/16 06:40:22;;;;;;;85.43;35.60;;;3.00;94.90;;;;;;6044246;23;20269;-91
2022/03/16 06:42:53;;;;;;;90.93;37.40;;;3.10;95.00;;;;;;6044228;23;20289;-91
2022/03/16 06:45:19;;;;;;;85.73;37.73;;;3.10;94.90;;;;;;6044368;23;20202;-91
2022/03/16 06:47:45;;;;;;;87.70;38.73;;;3.20;95.00;;;;;;6069765;23;20190;-91
2022/03/16 06:50:12;;;;;;;83.90;36.77;;;3.20;95.00;;;;;;6044175;23;20175;-91
2022/03/16 06:52:39;;;;;;;83.93;36.53;;;3.30;95.00;;;;;;6070148;23;20218;-93
2022/03/16 06:55:08;;;;;;;85.83;37.70;;;3.30;95.00;;;;;;6044094;23;20163;-92
2022/03/16 06:57:34;;;;;;;87.93;38.17;;;3.40;95.00;;;;;;6044007;23;20163;-91
2022/03/16 07:00:00;;;;;;;85.90;38.63;;;3.40;95.00;;;;;;6043922;23;20191;-91
2022/03/16 07:02:25;;;;;;;88.50;37.63;;;3.50;95.00;;;;;;6044052;23;20210;-92
2022/03/16 07:04:51;;;;;;;86.93;38.80;;;3.60;95.00;;;;;;6043936;23;20608;-91
2022/03/16 07:07:16;;;;;;;96.70;40.13;;;3.60;95.00;;;;;;6069680;23;20151;-91
2022/03/16 07:09:42;;;;;;;95.87;40.10;;;3.70;95.00;;;;;;6043926;23;20176;-91
2022/03/16 07:12:08;;;;;;;95.57;40.80;;;3.80;95.00;;;;;;6043663;23;20174;-91
2022/03/16 07:14:35;;;;;;;97.53;39.50;;;3.90;95.00;;;;;;6043880;23;20169;-91
2022/03/16 07:17:02;;;;;;;103.63;41.10;;;4.00;95.00;;;;;;6044525;23;20163;-90
2022/03/16 07:19:28;;;;;;;90.47;39.93;;;4.00;95.00;;;;;;6044091;23;20175;-90
2022/03/16 07:21:56;;;;;;;90.57;39.33;;;4.10;95.00;;;;;;6043833;23;20558;-91
2022/03/16 07:24:25;;;;;;;84.27;38.63;;;4.20;95.10;;;;;;6044346;23;20186;-91
2022/03/16 07:26:52;;;;;;;93.13;38.67;;;4.20;95.00;;;;;;6043729;23;20259;-93
2022/03/16 07:29:17;;;;;;;96.40;40.43;;;4.30;95.00;;;;;;6043652;23;20179;-91
2022/03/16 07:31:43;;;;;;;96.53;40.73;;;4.40;95.00;;;;;;6043751;23;20160;-92
2022/03/16 07:34:08;;;;;;;82.47;38.43;;;4.40;95.00;;;;;;6043935;23;20155;-91
2022/03/16 07:36:34;;;;;;;95.10;42.77;;;4.50;95.10;;;;;;6046440;23;20167;-92
2022/03/16 07:39:00;;;;;;;87.87;40.40;;;4.60;95.10;;;;;;6045375;23;20167;-89
2022/03/16 07:41:25;;;;;;;81.67;37.80;;;4.70;95.00;;;;;;6071052;23;20210;-92
2022/03/16 07:43:51;;;;;;;90.47;39.07;;;4.70;95.00;;;;;;6045612;23;20160;-91
2022/03/16 07:46:16;;;;;;;74.93;36.43;;;4.70;95.00;;;;;;6044419;23;20230;-92
2022/03/16 07:48:43;;;;;;;70.17;33.17;;;4.80;95.00;;;;;;6044358;23;20200;-93
2022/03/16 07:51:09;;;;;;;79.73;36.80;;;4.80;95.00;;;;;;6043494;23;20156;-92
2022/03/16 07:53:35;;;;;;;81.53;35.83;;;4.80;94.90;;;;;;6044571;23;20581;-92
2022/03/16 07:56:00;;;;;;;69.67;35.33;;;4.90;94.90;;;;;;6043485;23;20222;-92
2022/03/16 07:58:26;;;;;;;77.37;35.60;;;4.90;94.90;;;;;;6043774;23;20167;-92
2022/03/16 08:00:51;;;;;;;77.37;37.20;;;4.90;94.90;;;;;;6043168;23;20198;-92
2022/03/16 08:03:17;;;;;;;71.23;34.83;;;5.00;94.90;;;;;;6043193;23;20215;-92
2022/03/16 08:05:43;;;;;;;81.87;35.20;;;5.00;94.80;;;;;;6043638;23;20180;-91
2022/03/16 08:08:09;;;;;;;78.13;34.10;;;5.10;94.80;;;;;;6043144;23;20163;-91
2022/03/16 08:10:34;;;;;;;68.77;33.67;;;5.10;94.80;;;;;;6043178;23;20179;-91
2022/03/16 08:13:00;;;;;;;85.67;35.63;;;5.10;94.70;;;;;;6043094;23;20166;-92
2022/03/16 08:15:25;;;;;;;77.73;34.43;;;5.20;94.70;;;;;;6043300;23;20167;-91
2022/03/16 08:17:51;;;;;;;71.90;36.33;;;5.20;94.60;;;;;;6043841;23;20164;-92
2022/03/16 08:20:16;;;;;;;72.63;34.40;;;5.30;94.60;;;;;;6043128;23;20180;-92
2022/03/16 08:22:42;;;;;;;75.20;36.00;;;5.40;94.60;;;;;;6043543;23;20156;-92
2022/03/16 08:25:10;;;;;;;76.97;35.27;;;5.50;94.60;;;;;;6043087;23;20161;-92
2022/03/16 08:27:37;;;;;;;72.83;34.90;;;5.60;94.50;;;;;;6042981;23;20202;-91
2022/03/16 08:30:04;;;;;;;65.23;34.30;;;5.60;94.50;;;;;;6043102;23;20650;-92
2022/03/16 08:32:30;;;;;;;71.50;35.50;;;5.70;94.50;;;;;;6046421;23;20158;-91
2022/03/16 08:34:55;;;;;;;73.87;36.53;;;5.80;94.50;;;;;;6049081;23;20229;-91
2022/03/16 08:37:21;;;;;;;67.63;35.50;;;5.90;94.40;;;;;;6052686;23;20158;-93
2022/03/16 08:39:48;;;;;;;78.53;34.23;;;5.90;94.40;;;;;;6047522;23;20178;-92
2022/03/16 08:42:14;;;;;;;71.07;33.60;;;6.00;94.40;;;;;;6043576;23;20654;-92
2022/03/16 08:44:42;;;;;;;79.93;35.43;;;6.10;94.30;;;;;;6068317;23;20185;-90
2022/03/16 08:47:08;;;;;;;77.10;33.10;;;6.10;94.30;;;;;;6042777;23;20261;-92
2022/03/16 08:49:33;;;;;;;67.13;32.50;;;6.20;94.20;;;;;;6042878;23;20230;-92
2022/03/16 08:51:59;;;;;;;64.93;31.90;;;6.20;94.10;;;;;;6042741;23;20166;-91
2022/03/16 08:54:25;;;;;;;62.33;30.43;;;6.30;94.10;;;;;;6043599;23;20162;-92
2022/03/16 08:56:52;;;;;;;83.93;31.90;;;6.30;94.00;;;;;;6068401;23;20229;-90
2022/03/16 08:59:19;;;;;;;66.77;29.50;;;6.30;93.90;;;;;;6042813;23;20198;-90
2022/03/16 09:01:45;;;;;;;62.13;30.60;;;6.40;93.80;;;;;;6044025;23;20229;-90
2022/03/16 09:04:10;;;;;;;63.57;28.97;;;6.50;93.80;;;;;;6042752;23;20603;-90
2022/03/16 09:06:36;;;;;;;66.23;29.63;;;6.50;93.70;;;;;;6068049;23;20212;-90
2022/03/16 09:09:02;;;;;;;64.77;30.77;;;6.70;93.60;;;;;;6043102;23;20532;-90
2022/03/16 09:11:28;;;;;;;54.27;27.00;;;6.70;93.60;;;;;;6043492;23;20155;-93
2022/03/16 09:13:53;;;;;;;59.70;28.00;;;6.80;93.50;;;;;;6048355;23;20185;-90
2022/03/16 09:16:19;;;;;;;56.50;26.50;;;6.80;93.40;;;;;;6048262;23;20163;-90
2022/03/16 09:18:47;;;;;;;45.37;24.93;;;7.00;93.40;;;;;;6045390;23;20175;-91
2022/03/16 09:21:12;;;;;;;45.57;24.63;;;7.10;93.40;;;;;;6046939;23;20159;-92
2022/03/16 09:23:38;;;;;;;44.83;23.07;;;7.10;93.30;;;;;;6050145;23;20507;-92
2022/03/16 09:26:05;;;;;;;50.03;24.53;;;7.20;93.30;;;;;;6050653;23;20179;-93
2022/03/16 09:28:32;;;;;;;50.47;24.13;;;7.30;93.20;;;;;;6056841;23;20247;-94
2022/03/16 09:30:57;;;;;;;48.67;23.47;;;7.30;93.10;;;;;;6049007;23;20179;-91
2022/03/16 09:33:23;;;;;;;37.93;23.67;;;7.40;93.10;;;;;;6049710;23;20170;-93
2022/03/16 09:35:49;;;;;;;39.30;22.97;;;7.50;93.00;;;;;;6048113;23;20655;-92
2022/03/16 09:38:16;;;;;;;42.03;21.47;;;7.50;92.80;;;;;;6045401;23;20223;-93
2022/03/16 09:40:42;;;;;;;40.87;20.50;;;7.60;92.50;;;;;;6045734;23;20175;-92
2022/03/16 09:43:08;;;;;;;44.00;22.87;;;7.70;92.50;;;;;;6046796;23;20604;-91
2022/03/16 09:45:54;;;;;;;46.77;20.53;;;7.80;92.30;;;;;;6045237;23;20183;-91
2022/03/16 09:48:21;;;;;;;38.10;20.93;;;7.80;92.00;;;;;;6044323;23;20179;-91
2022/03/16 09:50:47;;;;;;;36.60;20.93;;;7.90;91.90;;;;;;6069735;23;20171;-91
2022/03/16 09:53:15;;;;;;;35.83;19.07;;;7.90;91.70;;;;;;6044793;23;20491;-91
2022/03/16 09:55:40;;;;;;;41.50;20.57;;;8.10;91.60;;;;;;6044623;23;20171;-90
2022/03/16 09:58:06;;;;;;;49.00;19.80;;;8.10;91.20;;;;;;6044563;23;20508;-91
2022/03/16 10:00:32;;;;;;;35.60;20.40;;;8.10;91.00;;;;;;6044456;23;20231;-90
2022/03/16 10:03:05;;;;;;;38.87;21.67;;;8.20;90.90;;;;;;6044354;23;20224;-90
2022/03/16 10:05:31;;;;;;;40.50;20.53;;;8.30;90.80;;;;;;6045899;23;20186;-89
2022/03/16 10:08:02;;;;;;;37.07;19.73;;;8.30;90.70;;;;;;6070622;23;20184;-91
2022/03/16 10:13:18;;;;;;;39.77;19.07;;;8.50;90.40;;;;;;6070473;23;20231;-91
2022/03/16 10:15:44;;;;;;;37.67;18.37;;;8.50;90.00;;;;;;6044105;23;20239;-91
2022/03/16 10:18:13;;;;;;;37.60;18.73;;;8.60;89.90;;;;;;6045581;23;20215;-92
2022/03/16 10:20:40;;;;;;;35.00;18.97;;;8.80;89.90;;;;;;6043858;23;20230;-91
2022/03/16 10:23:09;;;;;;;35.27;20.20;;;8.80;89.60;;;;;;6044258;23;20170;-91
2022/03/16 10:25:39;;;;;;;41.40;22.40;;;8.90;88.80;;;;;;6043770;23;20176;-91
2022/03/16 10:28:18;;;;;;;33.20;17.60;;;9.00;87.90;;;;;;6044156;23;20604;-91
2022/03/16 10:30:58;;;;;;;31.83;17.23;;;9.00;87.10;;;;;;6045677;23;20694;-89
2022/03/16 10:33:33;;;;;;;38.43;15.63;;;9.30;86.70;;;;;;6048386;23;20167;-89
2022/03/16 10:36:07;;;;;;;26.17;12.87;;;9.30;85.50;;;;;;6050454;23;20619;-93
2022/03/16 10:38:38;;;;;;;24.77;13.10;;;9.30;83.70;;;;;;6048793;23;20189;-91
2022/03/16 10:46:34;;;;;;;33.07;14.43;;;9.40;83.00;;;;;;6044517;23;20179;-91
2022/03/16 10:46:47;;;;;;;30.70;12.77;;;9.40;81.10;;;;;;6069664;23;20234;-91
2022/03/16 10:49:16;;;;;;;41.87;16.43;;;9.70;82.80;;;;;;6044474;23;20181;-91
2022/03/16 10:51:43;;;;;;;19.90;10.63;;;9.70;81.70;;;;;;6044455;23;20187;-91
2022/03/16 10:54:08;;;;;;;32.90;12.20;;;9.80;80.80;;;;;;6044260;23;20623;-90
2022/03/16 10:56:39;;;;;;;24.03;11.77;;;9.90;80.90;;;;;;6044129;23;20169;-91
2022/03/16 10:59:05;;;;;;;23.63;11.63;;;10.00;80.50;;;;;;6069903;23;20175;-90
2022/03/16 11:01:35;;;;;;;27.63;13.57;;;9.90;79.60;;;;;;6044552;23;20151;-92
2022/03/16 11:06:38;;;;;;;20.30;10.93;;;10.00;80.20;;;;;;6014892;23;20204;-91
2022/03/16 11:09:05;;;;;;;19.23;10.83;;;10.00;78.50;;;;;;5988533;23;20216;-91
2022/03/16 11:14:20;;;;;;;25.30;9.53;;;10.00;78.40;;;;;;6014151;23;20216;-91
2022/03/16 11:16:49;;;;;;;22.27;10.47;;;10.00;78.20;;;;;;5989424;23;20196;-91
2022/03/16 11:19:17;;;;;;;27.43;11.10;;;10.00;78.20;;;;;;5989765;23;20161;-91
2022/03/16 11:22:30;;;;;;;28.50;12.77;;;10.10;77.70;;;;;;5994229;23;20141;-91
2022/03/16 11:25:23;;;;;;;20.83;10.63;;;10.10;76.80;;;;;;5982860;23;20228;-91
2022/03/16 11:27:53;;;;;;;20.23;10.07;;;10.30;77.70;;;;;;5984178;23;20165;-90
2022/03/16 11:30:35;;;;;;;25.80;11.23;;;10.30;77.20;;;;;;5990408;23;20161;-90
2022/03/16 11:33:04;;;;;;;20.20;9.77;;;10.30;76.30;;;;;;5988938;23;20153;-91
2022/03/16 11:35:45;;;;;;;25.23;10.33;;;10.40;76.90;;;;;;5988190;23;20629;-90
2022/03/16 11:38:15;;;;;;;21.17;9.93;;;10.40;76.70;;;;;;5990965;23;20160;-92
2022/03/16 11:40:46;;;;;;;21.37;10.03;;;10.60;76.80;;;;;;5994735;23;20156;-91
2022/03/16 11:43:12;;;;;;;20.20;9.17;;;10.60;77.10;;;;;;5997875;23;20152;-90
2022/03/16 11:45:41;;;;;;;26.47;10.73;;;10.70;76.90;;;;;;6008162;23;20188;-92
2022/03/16 11:48:31;;;;;;;20.53;10.33;;;10.60;76.80;;;;;;6007005;23;20168;-92
2022/03/16 11:51:27;;;;;;;22.33;9.40;;;10.60;76.70;;;;;;5998312;23;20172;-91
2022/03/16 11:59:17;;;;;;;18.07;9.37;;;10.70;73.80;;;;;;6073294;23;20183;-93
2022/03/16 12:01:52;;;;;;;16.90;8.10;;;10.60;74.00;;;;;;6047867;23;20519;-93
2022/03/16 12:04:38;;;;;;;17.07;7.63;;;10.60;74.70;;;;;;6051431;23;20174;-93
2022/03/16 12:07:22;;;;;;;14.43;7.37;;;10.70;75.50;;;;;;6052644;23;20183;-92
2022/03/16 12:09:54;;;;;;;19.67;7.63;;;10.60;73.90;;;;;;6054856;23;20163;-91
2022/03/16 12:12:51;;;;;;;19.23;8.27;;;10.60;74.30;;;;;;6053260;23;20144;-93
2022/03/16 12:15:34;;;;;;;21.10;7.20;;;10.60;73.50;;;;;;6053845;23;20207;-93
2022/03/16 12:18:00;;;;;;;19.57;7.10;;;10.70;74.40;;;;;;6053248;23;20592;-93
2022/03/16 12:20:37;;;;;;;18.50;6.90;;;10.80;73.00;;;;;;6048851;23;20238;-93
2022/03/16 12:23:09;;;;;;;17.00;6.77;;;10.80;71.90;;;;;;6047808;23;20151;-93
2022/03/16 12:25:39;;;;;;;17.17;6.80;;;10.90;71.30;;;;;;6046491;23;20194;-94
2022/03/16 12:31:00;;;;;;;15.97;7.33;;;11.20;71.90;;;;;;6073513;23;20147;-93
2022/03/16 12:33:37;;;;;;;15.67;7.23;;;11.30;70.80;;;;;;6048940;23;20154;-93
2022/03/16 12:36:03;;;;;;;16.30;6.70;;;11.30;69.90;;;;;;6050475;23;20179;-93
2022/03/16 12:38:31;;;;;;;11.57;5.63;;;11.20;69.90;;;;;;6049408;23;20167;-93
2022/03/16 12:43:49;;;;;;;17.00;6.30;;;11.20;68.60;;;;;;6072741;23;20200;-93
2022/03/16 12:46:33;;;;;;;11.97;5.90;;;11.40;68.40;;;;;;6057083;23;20206;-92
2022/03/16 12:49:03;;;;;;;13.33;5.10;;;11.40;68.80;;;;;;6069483;23;20147;-94
2022/03/16 12:51:37;;;;;;;9.57;5.40;;;11.50;68.60;;;;;;6069731;23;20152;-94
2022/03/16 12:54:07;;;;;;;17.63;6.30;;;11.40;67.20;;;;;;6057600;23;20166;-94
2022/03/16 12:56:41;;;;;;;12.87;5.47;;;11.50;68.60;;;;;;6055331;23;20160;-94
2022/03/16 13:13:22;;;;;;;12.17;5.90;;;11.40;67.00;;;;;;6074580;23;20195;-92